sensor_id;sensor_type;location;lat;lon;timestamp;pressure;altitude;pressure_sealevel;temperature;humidity
20156;BME280;10238;49.556;10.956;2023-07-09T10:56:22;98571.97;;;39.67;31.74
20156;BME280;10238;49.556;10.956;2023-07-09T10:59:16;98568.53;;;39.41;32.70
20156;BME280;10238;49.556;10.956;2023-07-09T11:02:19;98567.69;;;38.73;30.50
20156;BME280;10238;49.556;10.956;2023-07-09T11:05:09;98572.34;;;38.10;35.34
20156;BME280;10238;49.556;10.956;2023-07-09T11:08:00;98574.75;;;38.45;31.71
20156;BME280;10238;49.556;10.956;2023-07-09T11:10:54;98570.66;;;38.60;32.03
20156;BME280;10238;49.556;10.956;2023-07-09T11:13:47;98569.38;;;39.04;34.04
20156;BME280;10238;49.556;10.956;2023-07-09T11:16:40;98559.75;;;39.30;33.52
20156;BME280;10238;49.556;10.956;2023-07-09T11:19:29;98561.09;;;39.74;32.67
20156;BME280;10238;49.556;10.956;2023-07-09T11:22:21;98554.16;;;40.21;32.23
20156;BME280;10238;49.556;10.956;2023-07-09T11:25:11;98554.47;;;40.40;31.51
20156;BME280;10238;49.556;10.956;2023-07-09T11:28:05;98547.72;;;40.74;32.01
20156;BME280;10238;49.556;10.956;2023-07-09T11:30:55;98541.56;;;40.92;30.35
20156;BME280;10238;49.556;10.956;2023-07-09T11:34:07;98544.63;;;41.11;31.55
20156;BME280;10238;49.556;10.956;2023-07-09T11:37:26;98540.19;;;41.34;30.48
20156;BME280;10238;49.556;10.956;2023-07-09T11:40:15;98534.38;;;41.39;29.01
20156;BME280;10238;49.556;10.956;2023-07-09T11:46:16;98531.78;;;41.70;29.07
20156;BME280;10238;49.556;10.956;2023-07-09T11:49:06;98528.13;;;41.94;28.27
20156;BME280;10238;49.556;10.956;2023-07-09T11:51:59;98527.00;;;42.10;26.65
20156;BME280;10238;49.556;10.956;2023-07-09T11:54:56;98526.84;;;41.79;29.32
20156;BME280;10238;49.556;10.956;2023-07-09T11:57:47;98525.13;;;41.75;28.54
20156;BME280;10238;49.556;10.956;2023-07-09T12:00:46;98521.50;;;41.86;29.09
20156;BME280;10238;49.556;10.956;2023-07-09T12:03:40;98514.72;;;41.99;27.77
20156;BME280;10238;49.556;10.956;2023-07-09T12:06:31;98518.69;;;41.86;27.26
20156;BME280;10238;49.556;10.956;2023-07-09T12:09:21;98513.19;;;41.50;27.74
20156;BME280;10238;49.556;10.956;2023-07-09T12:12:26;98505.41;;;41.56;29.60
20156;BME280;10238;49.556;10.956;2023-07-09T12:15:19;98507.03;;;41.84;28.65
20156;BME280;10238;49.556;10.956;2023-07-09T12:18:11;98507.94;;;42.28;29.12
20156;BME280;10238;49.556;10.956;2023-07-09T12:21:27;98499.03;;;42.10;28.84
20156;BME280;10238;49.556;10.956;2023-07-09T12:24:19;98493.63;;;42.17;28.18
20156;BME280;10238;49.556;10.956;2023-07-09T12:27:22;98495.88;;;42.39;29.13
20156;BME280;10238;49.556;10.956;2023-07-09T12:30:14;98483.81;;;42.67;27.74
20156;BME280;10238;49.556;10.956;2023-07-09T12:33:07;98484.91;;;42.78;27.88
20156;BME280;10238;49.556;10.956;2023-07-09T12:35:57;98481.63;;;42.44;27.72
20156;BME280;10238;49.556;10.956;2023-07-09T12:38:50;98475.59;;;42.58;28.65
20156;BME280;10238;49.556;10.956;2023-07-09T12:41:40;98475.28;;;42.32;27.44
20156;BME280;10238;49.556;10.956;2023-07-09T12:44:31;98476.50;;;42.19;26.23
20156;BME280;10238;49.556;10.956;2023-07-09T12:47:25;98475.72;;;42.18;27.94
20156;BME280;10238;49.556;10.956;2023-07-09T12:50:21;98461.91;;;42.25;27.74
20156;BME280;10238;49.556;10.956;2023-07-09T12:53:15;98461.41;;;42.35;26.83
20156;BME280;10238;49.556;10.956;2023-07-09T12:56:12;98467.19;;;41.99;25.75
20156;BME280;10238;49.556;10.956;2023-07-09T12:59:02;98464.88;;;42.17;27.86
20156;BME280;10238;49.556;10.956;2023-07-09T13:02:13;98464.88;;;42.76;26.98
20156;BME280;10238;49.556;10.956;2023-07-09T13:05:04;98458.53;;;43.10;25.43
20156;BME280;10238;49.556;10.956;2023-07-09T13:07:54;98451.44;;;43.31;27.62
20156;BME280;10238;49.556;10.956;2023-07-09T13:10:42;98451.63;;;43.57;25.54
20156;BME280;10238;49.556;10.956;2023-07-09T13:13:32;98452.50;;;43.61;26.22
20156;BME280;10238;49.556;10.956;2023-07-09T13:16:20;98457.00;;;43.47;26.49
20156;BME280;10238;49.556;10.956;2023-07-09T13:19:08;98449.00;;;42.80;25.94
20156;BME280;10238;49.556;10.956;2023-07-09T13:21:56;98452.41;;;42.89;25.18
20156;BME280;10238;49.556;10.956;2023-07-09T13:24:45;98447.91;;;42.69;26.93
20156;BME280;10238;49.556;10.956;2023-07-09T13:27:33;98451.63;;;42.73;26.62
20156;BME280;10238;49.556;10.956;2023-07-09T13:30:23;98441.94;;;42.55;27.51
20156;BME280;10238;49.556;10.956;2023-07-09T13:33:11;98435.22;;;42.12;25.53
20156;BME280;10238;49.556;10.956;2023-07-09T13:35:59;98455.44;;;41.15;27.54
20156;BME280;10238;49.556;10.956;2023-07-09T13:38:47;98453.88;;;40.45;28.10
20156;BME280;10238;49.556;10.956;2023-07-09T13:41:37;98453.16;;;40.36;27.39
20156;BME280;10238;49.556;10.956;2023-07-09T13:44:27;98449.16;;;40.94;29.96
20156;BME280;10238;49.556;10.956;2023-07-09T13:47:31;98446.28;;;41.54;28.41
20156;BME280;10238;49.556;10.956;2023-07-09T13:50:20;98435.47;;;42.07;27.10
20156;BME280;10238;49.556;10.956;2023-07-09T13:53:18;98436.16;;;42.63;28.09
20156;BME280;10238;49.556;10.956;2023-07-09T13:56:09;98433.31;;;43.10;27.77
20156;BME280;10238;49.556;10.956;2023-07-09T13:58:58;98428.06;;;43.43;26.67
20156;BME280;10238;49.556;10.956;2023-07-09T14:01:46;98420.66;;;43.50;23.89
20156;BME280;10238;49.556;10.956;2023-07-09T14:04:36;98422.31;;;43.01;25.67
20156;BME280;10238;49.556;10.956;2023-07-09T14:07:29;98410.94;;;43.29;27.25
20156;BME280;10238;49.556;10.956;2023-07-09T14:10:18;98411.13;;;43.55;25.70
20156;BME280;10238;49.556;10.956;2023-07-09T14:13:10;98407.53;;;43.54;27.53
20156;BME280;10238;49.556;10.956;2023-07-09T14:16:01;98412.31;;;43.92;24.67
20156;BME280;10238;49.556;10.956;2023-07-09T14:18:49;98405.50;;;43.74;24.83
20156;BME280;10238;49.556;10.956;2023-07-09T14:21:39;98403.09;;;43.72;24.78
20156;BME280;10238;49.556;10.956;2023-07-09T14:24:28;98403.50;;;43.52;23.22
20156;BME280;10238;49.556;10.956;2023-07-09T14:27:18;98399.13;;;43.01;25.86
20156;BME280;10238;49.556;10.956;2023-07-09T14:30:08;98388.44;;;43.60;25.70
20156;BME280;10238;49.556;10.956;2023-07-09T14:32:57;98378.06;;;44.02;24.23
20156;BME280;10238;49.556;10.956;2023-07-09T14:35:46;98383.91;;;43.74;26.71
20156;BME280;10238;49.556;10.956;2023-07-09T14:38:35;98374.09;;;44.03;27.14
20156;BME280;10238;49.556;10.956;2023-07-09T14:41:25;98376.34;;;44.39;25.52
20156;BME280;10238;49.556;10.956;2023-07-09T14:44:22;98374.09;;;44.48;24.66
20156;BME280;10238;49.556;10.956;2023-07-09T14:47:14;98376.63;;;43.70;25.83
20156;BME280;10238;49.556;10.956;2023-07-09T14:50:03;98382.03;;;42.24;24.46
20156;BME280;10238;49.556;10.956;2023-07-09T14:52:51;98386.13;;;41.17;26.32
20156;BME280;10238;49.556;10.956;2023-07-09T14:55:41;98387.53;;;41.11;29.84
20156;BME280;10238;49.556;10.956;2023-07-09T14:58:29;98381.38;;;40.93;26.97
20156;BME280;10238;49.556;10.956;2023-07-09T15:01:24;98379.22;;;40.50;27.72
20156;BME280;10238;49.556;10.956;2023-07-09T15:04:28;98373.00;;;40.09;28.07
20156;BME280;10238;49.556;10.956;2023-07-09T15:07:17;98383.69;;;39.74;28.55
20156;BME280;10238;49.556;10.956;2023-07-09T15:10:05;98378.28;;;39.45;29.97
20156;BME280;10238;49.556;10.956;2023-07-09T15:12:56;98373.84;;;39.44;29.11
20156;BME280;10238;49.556;10.956;2023-07-09T15:15:44;98367.94;;;39.05;29.68
20156;BME280;10238;49.556;10.956;2023-07-09T15:18:33;98364.06;;;39.18;27.54
20156;BME280;10238;49.556;10.956;2023-07-09T15:21:23;98364.22;;;39.01;29.30
20156;BME280;10238;49.556;10.956;2023-07-09T15:24:13;98367.59;;;39.27;30.00
20156;BME280;10238;49.556;10.956;2023-07-09T15:27:02;98366.81;;;39.59;27.62
20156;BME280;10238;49.556;10.956;2023-07-09T15:29:53;98366.72;;;39.35;29.08
20156;BME280;10238;49.556;10.956;2023-07-09T15:32:41;98363.75;;;38.69;28.16
20156;BME280;10238;49.556;10.956;2023-07-09T15:35:33;98366.72;;;38.27;29.49
20156;BME280;10238;49.556;10.956;2023-07-09T15:38:27;98357.41;;;38.31;30.53
20156;BME280;10238;49.556;10.956;2023-07-09T15:41:15;98359.66;;;38.38;31.03
20156;BME280;10238;49.556;10.956;2023-07-09T15:44:04;98355.94;;;38.34;30.50
20156;BME280;10238;49.556;10.956;2023-07-09T15:46:55;98357.78;;;38.21;30.70
20156;BME280;10238;49.556;10.956;2023-07-09T15:49:44;98355.53;;;38.15;30.69
20156;BME280;10238;49.556;10.956;2023-07-09T15:52:32;98350.78;;;38.07;31.97
20156;BME280;10238;49.556;10.956;2023-07-09T15:55:21;98352.78;;;37.98;30.54
20156;BME280;10238;49.556;10.956;2023-07-09T15:58:18;98354.44;;;37.90;31.92
20156;BME280;10238;49.556;10.956;2023-07-09T16:01:07;98349.75;;;37.82;45.27
20156;BME280;10238;49.556;10.956;2023-07-09T16:04:01;98346.50;;;37.72;43.94
20156;BME280;10238;49.556;10.956;2023-07-09T16:06:55;98338.81;;;37.77;35.84
20156;BME280;10238;49.556;10.956;2023-07-09T16:09:44;98342.41;;;37.78;33.89
20156;BME280;10238;49.556;10.956;2023-07-09T16:12:33;98343.91;;;37.67;34.08
20156;BME280;10238;49.556;10.956;2023-07-09T16:15:22;98336.53;;;37.54;33.90
20156;BME280;10238;49.556;10.956;2023-07-09T16:18:11;98329.38;;;37.53;33.58
20156;BME280;10238;49.556;10.956;2023-07-09T16:21:00;98330.66;;;37.55;34.96
20156;BME280;10238;49.556;10.956;2023-07-09T16:23:48;98328.88;;;37.59;32.85
20156;BME280;10238;49.556;10.956;2023-07-09T16:26:36;98328.34;;;37.74;34.05
20156;BME280;10238;49.556;10.956;2023-07-09T16:29:26;98333.22;;;37.94;32.59
20156;BME280;10238;49.556;10.956;2023-07-09T16:32:14;98331.88;;;38.00;33.69
20156;BME280;10238;49.556;10.956;2023-07-09T16:35:02;98332.13;;;37.78;31.96
20156;BME280;10238;49.556;10.956;2023-07-09T16:37:52;98330.75;;;37.93;31.78
20156;BME280;10238;49.556;10.956;2023-07-09T16:40:40;98337.72;;;38.16;31.45
20156;BME280;10238;49.556;10.956;2023-07-09T16:43:28;98336.66;;;38.29;29.26
20156;BME280;10238;49.556;10.956;2023-07-09T16:46:19;98337.88;;;37.56;30.48
20156;BME280;10238;49.556;10.956;2023-07-09T16:49:22;98343.22;;;37.61;30.50
20156;BME280;10238;49.556;10.956;2023-07-09T16:52:14;98344.84;;;37.79;33.64
20156;BME280;10238;49.556;10.956;2023-07-09T16:55:05;98331.78;;;38.26;33.25
20156;BME280;10238;49.556;10.956;2023-07-09T16:57:54;98337.97;;;38.60;30.63
20156;BME280;10238;49.556;10.956;2023-07-09T17:00:43;98332.22;;;38.65;31.69
20156;BME280;10238;49.556;10.956;2023-07-09T17:03:32;98331.63;;;38.81;31.24
20156;BME280;10238;49.556;10.956;2023-07-09T17:06:20;98335.28;;;38.93;31.26
20156;BME280;10238;49.556;10.956;2023-07-09T17:09:08;98337.09;;;38.68;31.04
20156;BME280;10238;49.556;10.956;2023-07-09T17:11:59;98340.59;;;38.28;30.90
20156;BME280;10238;49.556;10.956;2023-07-09T17:14:47;98344.09;;;38.16;33.84
20156;BME280;10238;49.556;10.956;2023-07-09T17:17:35;98340.34;;;38.04;32.85
20156;BME280;10238;49.556;10.956;2023-07-09T17:20:24;98336.81;;;37.86;32.77
20156;BME280;10238;49.556;10.956;2023-07-09T17:23:14;98350.09;;;37.55;34.23
20156;BME280;10238;49.556;10.956;2023-07-09T17:26:01;98349.66;;;37.28;34.72
20156;BME280;10238;49.556;10.956;2023-07-09T17:28:51;98341.16;;;36.99;33.51
20156;BME280;10238;49.556;10.956;2023-07-09T17:31:39;98348.94;;;36.71;35.19
20156;BME280;10238;49.556;10.956;2023-07-09T17:34:27;98349.69;;;36.46;35.89
20156;BME280;10238;49.556;10.956;2023-07-09T17:37:16;98360.75;;;36.29;36.62
20156;BME280;10238;49.556;10.956;2023-07-09T17:40:14;98362.09;;;36.09;37.06
20156;BME280;10238;49.556;10.956;2023-07-09T17:43:25;98352.03;;;35.83;38.86
20156;BME280;10238;49.556;10.956;2023-07-09T17:46:14;98360.84;;;35.63;38.43
20156;BME280;10238;49.556;10.956;2023-07-09T17:49:07;98359.56;;;35.38;39.21
20156;BME280;10238;49.556;10.956;2023-07-09T17:51:55;98350.91;;;35.18;39.56
20156;BME280;10238;49.556;10.956;2023-07-09T17:54:44;98351.78;;;35.05;40.26
20156;BME280;10238;49.556;10.956;2023-07-09T17:57:32;98356.53;;;34.90;41.63
20156;BME280;10238;49.556;10.956;2023-07-09T18:00:22;98358.81;;;34.75;38.96
20156;BME280;10238;49.556;10.956;2023-07-09T18:03:13;98354.44;;;34.60;42.29
20156;BME280;10238;49.556;10.956;2023-07-09T18:06:02;98360.81;;;34.47;42.26
20156;BME280;10238;49.556;10.956;2023-07-09T18:08:51;98357.69;;;34.22;41.94
20156;BME280;10238;49.556;10.956;2023-07-09T18:11:39;98357.81;;;34.03;43.82
20156;BME280;10238;49.556;10.956;2023-07-09T18:14:36;98357.97;;;33.80;42.50
20156;BME280;10238;49.556;10.956;2023-07-09T18:17:28;98360.78;;;33.61;43.85
20156;BME280;10238;49.556;10.956;2023-07-09T18:20:21;98353.38;;;33.43;45.97
20156;BME280;10238;49.556;10.956;2023-07-09T18:23:09;98359.31;;;33.37;45.86
20156;BME280;10238;49.556;10.956;2023-07-09T18:25:57;98355.31;;;33.24;47.38
20156;BME280;10238;49.556;10.956;2023-07-09T18:28:45;98357.09;;;33.01;48.52
20156;BME280;10238;49.556;10.956;2023-07-09T18:31:33;98357.03;;;32.83;48.66
20156;BME280;10238;49.556;10.956;2023-07-09T18:34:22;98362.25;;;32.66;49.66
20156;BME280;10238;49.556;10.956;2023-07-09T18:37:11;98359.69;;;32.51;48.80
20156;BME280;10238;49.556;10.956;2023-07-09T18:39:59;98362.69;;;32.31;47.00
20156;BME280;10238;49.556;10.956;2023-07-09T18:42:47;98358.25;;;32.11;46.07
20156;BME280;10238;49.556;10.956;2023-07-09T18:45:35;98359.19;;;32.02;46.32
20156;BME280;10238;49.556;10.956;2023-07-09T18:48:23;98356.03;;;31.90;45.08
20156;BME280;10238;49.556;10.956;2023-07-09T18:51:12;98356.44;;;31.73;45.53
20156;BME280;10238;49.556;10.956;2023-07-09T18:54:08;98355.19;;;31.61;46.48
20156;BME280;10238;49.556;10.956;2023-07-09T18:56:56;98355.00;;;31.52;46.39
20156;BME280;10238;49.556;10.956;2023-07-09T18:59:44;98357.06;;;31.37;47.33
20156;BME280;10238;49.556;10.956;2023-07-09T19:02:32;98354.75;;;31.15;48.06
20156;BME280;10238;49.556;10.956;2023-07-09T19:05:23;98356.31;;;30.92;49.70
20156;BME280;10238;49.556;10.956;2023-07-09T19:08:18;98348.16;;;30.77;49.08
20156;BME280;10238;49.556;10.956;2023-07-09T19:11:08;98347.09;;;30.63;49.43
20156;BME280;10238;49.556;10.956;2023-07-09T19:13:56;98348.06;;;30.44;51.08
20156;BME280;10238;49.556;10.956;2023-07-09T19:16:48;98343.19;;;30.26;51.03
20156;BME280;10238;49.556;10.956;2023-07-09T19:19:37;98341.34;;;30.06;51.44
20156;BME280;10238;49.556;10.956;2023-07-09T19:22:25;98345.22;;;29.85;51.63
20156;BME280;10238;49.556;10.956;2023-07-09T19:25:15;98351.56;;;29.66;52.70
20156;BME280;10238;49.556;10.956;2023-07-09T19:28:04;98366.66;;;29.43;53.07
20156;BME280;10238;49.556;10.956;2023-07-09T19:30:53;98356.78;;;29.22;52.83
20156;BME280;10238;49.556;10.956;2023-07-09T19:33:42;98361.19;;;29.08;55.73
20156;BME280;10238;49.556;10.956;2023-07-09T19:36:30;98360.56;;;28.91;55.28
20156;BME280;10238;49.556;10.956;2023-07-09T19:39:27;98361.09;;;28.78;56.21
20156;BME280;10238;49.556;10.956;2023-07-09T19:42:18;98364.91;;;28.67;55.90
20156;BME280;10238;49.556;10.956;2023-07-09T19:45:11;98366.50;;;28.48;56.33
20156;BME280;10238;49.556;10.956;2023-07-09T19:48:00;98368.31;;;28.32;57.44
20156;BME280;10238;49.556;10.956;2023-07-09T19:50:49;98367.44;;;28.17;57.24
20156;BME280;10238;49.556;10.956;2023-07-09T19:53:37;98369.84;;;28.03;58.27
20156;BME280;10238;49.556;10.956;2023-07-09T19:56:25;98378.25;;;27.87;59.87
20156;BME280;10238;49.556;10.956;2023-07-09T19:59:13;98377.59;;;27.75;60.87
20156;BME280;10238;49.556;10.956;2023-07-09T20:02:16;98380.72;;;27.57;61.00
20156;BME280;10238;49.556;10.956;2023-07-09T20:05:14;98375.38;;;27.35;61.34
20156;BME280;10238;49.556;10.956;2023-07-09T20:08:13;98381.03;;;27.23;62.35
20156;BME280;10238;49.556;10.956;2023-07-09T20:11:02;98384.72;;;27.12;62.04
20156;BME280;10238;49.556;10.956;2023-07-09T20:13:52;98377.53;;;27.01;62.63
20156;BME280;10238;49.556;10.956;2023-07-09T20:16:40;98382.88;;;26.91;64.08
20156;BME280;10238;49.556;10.956;2023-07-09T20:19:29;98391.28;;;26.85;63.44
20156;BME280;10238;49.556;10.956;2023-07-09T20:22:22;98393.06;;;26.74;64.43
20156;BME280;10238;49.556;10.956;2023-07-09T20:25:18;98396.66;;;26.58;65.09
20156;BME280;10238;49.556;10.956;2023-07-09T20:28:17;98396.31;;;26.50;65.73
20156;BME280;10238;49.556;10.956;2023-07-09T20:31:16;98396.53;;;26.43;66.16
20156;BME280;10238;49.556;10.956;2023-07-09T20:34:15;98391.47;;;26.30;66.71
20156;BME280;10238;49.556;10.956;2023-07-09T20:37:08;98395.69;;;26.21;67.04
20156;BME280;10238;49.556;10.956;2023-07-09T20:39:57;98392.09;;;26.16;68.26
20156;BME280;10238;49.556;10.956;2023-07-09T20:42:45;98397.13;;;26.07;68.28
20156;BME280;10238;49.556;10.956;2023-07-09T20:45:34;98393.78;;;26.00;68.48
20156;BME280;10238;49.556;10.956;2023-07-09T20:48:22;98389.25;;;25.89;69.55
20156;BME280;10238;49.556;10.956;2023-07-09T20:51:10;98397.84;;;25.81;70.07
20156;BME280;10238;49.556;10.956;2023-07-09T20:53:59;98390.09;;;25.73;70.85
20156;BME280;10238;49.556;10.956;2023-07-09T20:56:47;98393.19;;;25.60;70.84
20156;BME280;10238;49.556;10.956;2023-07-09T20:59:35;98391.44;;;25.54;72.08
20156;BME280;10238;49.556;10.956;2023-07-09T21:02:25;98399.22;;;25.46;72.02
20156;BME280;10238;49.556;10.956;2023-07-09T21:05:16;98390.88;;;25.36;72.78
20156;BME280;10238;49.556;10.956;2023-07-09T21:08:13;98407.34;;;25.29;72.59
20156;BME280;10238;49.556;10.956;2023-07-09T21:11:04;98404.22;;;25.20;73.77
20156;BME280;10238;49.556;10.956;2023-07-09T21:13:51;98405.94;;;25.10;74.99
20156;BME280;10238;49.556;10.956;2023-07-09T21:16:41;98406.31;;;25.02;76.13
20156;BME280;10238;49.556;10.956;2023-07-09T21:19:33;98420.41;;;24.99;77.24
20156;BME280;10238;49.556;10.956;2023-07-09T21:22:22;98417.13;;;24.97;76.64
20156;BME280;10238;49.556;10.956;2023-07-09T21:25:23;98418.94;;;24.91;77.13
20156;BME280;10238;49.556;10.956;2023-07-09T21:28:13;98417.44;;;24.84;76.91
20156;BME280;10238;49.556;10.956;2023-07-09T21:31:01;98414.59;;;24.79;77.15
20156;BME280;10238;49.556;10.956;2023-07-09T21:33:49;98411.81;;;24.74;78.18
20156;BME280;10238;49.556;10.956;2023-07-09T21:36:37;98422.09;;;24.72;78.09
20156;BME280;10238;49.556;10.956;2023-07-09T21:39:28;98424.94;;;24.65;78.53
20156;BME280;10238;49.556;10.956;2023-07-09T21:42:17;98419.63;;;24.59;78.92
20156;BME280;10238;49.556;10.956;2023-07-09T21:45:08;98429.00;;;24.51;80.07
20156;BME280;10238;49.556;10.956;2023-07-09T21:47:59;98423.69;;;24.45;80.22
20156;BME280;10238;49.556;10.956;2023-07-09T21:50:49;98428.44;;;24.38;80.14
20156;BME280;10238;49.556;10.956;2023-07-09T21:53:36;98417.34;;;24.28;81.18
20156;BME280;10238;49.556;10.956;2023-07-09T21:56:44;98427.53;;;24.21;82.24
20156;BME280;10238;49.556;10.956;2023-07-09T21:59:32;98423.53;;;24.12;83.01
20156;BME280;10238;49.556;10.956;2023-07-09T22:02:30;98440.09;;;23.99;86.30
20156;BME280;10238;49.556;10.956;2023-07-09T22:05:21;98446.06;;;23.89;86.28
20156;BME280;10238;49.556;10.956;2023-07-09T22:08:15;98447.84;;;23.84;86.77
20156;BME280;10238;49.556;10.956;2023-07-09T22:11:13;98439.72;;;23.72;88.49
20156;BME280;10238;49.556;10.956;2023-07-09T22:14:12;98443.28;;;23.61;90.18
20156;BME280;10238;49.556;10.956;2023-07-09T22:17:04;98439.81;;;23.54;91.18
20156;BME280;10238;49.556;10.956;2023-07-09T22:19:54;98439.34;;;23.46;92.46
20156;BME280;10238;49.556;10.956;2023-07-09T22:22:41;98436.75;;;23.39;92.24
20156;BME280;10238;49.556;10.956;2023-07-09T22:25:31;98442.41;;;23.38;93.78
20156;BME280;10238;49.556;10.956;2023-07-09T22:28:20;98436.28;;;23.31;93.49
20156;BME280;10238;49.556;10.956;2023-07-09T22:31:11;98438.38;;;23.28;92.94
20156;BME280;10238;49.556;10.956;2023-07-09T22:34:01;98437.78;;;23.26;92.52
20156;BME280;10238;49.556;10.956;2023-07-09T22:36:54;98443.44;;;23.25;93.68
20156;BME280;10238;49.556;10.956;2023-07-09T22:39:42;98439.75;;;23.19;93.18
20156;BME280;10238;49.556;10.956;2023-07-09T22:42:29;98447.16;;;23.12;94.42
20156;BME280;10238;49.556;10.956;2023-07-09T22:45:19;98446.66;;;23.04;95.54
20156;BME280;10238;49.556;10.956;2023-07-09T22:48:10;98437.81;;;22.97;96.08
20156;BME280;10238;49.556;10.956;2023-07-09T22:51:00;98433.53;;;22.89;96.25
20156;BME280;10238;49.556;10.956;2023-07-09T22:53:49;98440.47;;;22.85;97.37
20156;BME280;10238;49.556;10.956;2023-07-09T22:56:37;98439.03;;;22.83;96.97
20156;BME280;10238;49.556;10.956;2023-07-09T22:59:25;98434.09;;;22.80;97.04
20156;BME280;10238;49.556;10.956;2023-07-09T23:02:13;98435.84;;;22.74;98.45
20156;BME280;10238;49.556;10.956;2023-07-09T23:05:11;98433.44;;;22.66;98.12
20156;BME280;10238;49.556;10.956;2023-07-09T23:07:59;98445.34;;;22.65;97.91
20156;BME280;10238;49.556;10.956;2023-07-09T23:10:49;98445.22;;;22.60;98.60
20156;BME280;10238;49.556;10.956;2023-07-09T23:13:37;98445.06;;;22.55;100.00
20156;BME280;10238;49.556;10.956;2023-07-09T23:16:29;98440.75;;;22.48;100.00
20156;BME280;10238;49.556;10.956;2023-07-09T23:19:21;98442.50;;;22.42;100.00
20156;BME280;10238;49.556;10.956;2023-07-09T23:22:10;98443.16;;;22.38;100.00
20156;BME280;10238;49.556;10.956;2023-07-09T23:24:57;98444.31;;;22.30;100.00
20156;BME280;10238;49.556;10.956;2023-07-09T23:27:48;98442.03;;;22.27;100.00
20156;BME280;10238;49.556;10.956;2023-07-09T23:30:37;98444.41;;;22.24;100.00
20156;BME280;10238;49.556;10.956;2023-07-09T23:33:28;98444.47;;;22.17;100.00
20156;BME280;10238;49.556;10.956;2023-07-09T23:36:15;98444.69;;;22.16;100.00
20156;BME280;10238;49.556;10.956;2023-07-09T23:39:03;98444.91;;;22.14;100.00
20156;BME280;10238;49.556;10.956;2023-07-09T23:41:52;98447.41;;;22.16;100.00
20156;BME280;10238;49.556;10.956;2023-07-09T23:44:44;98444.47;;;22.17;100.00
20156;BME280;10238;49.556;10.956;2023-07-09T23:47:33;98447.41;;;22.16;100.00
20156;BME280;10238;49.556;10.956;2023-07-09T23:50:22;98435.72;;;22.15;100.00
20156;BME280;10238;49.556;10.956;2023-07-09T23:53:21;98443.25;;;22.13;100.00
20156;BME280;10238;49.556;10.956;2023-07-09T23:56:17;98436.16;;;22.12;100.00
20156;BME280;10238;49.556;10.956;2023-07-09T23:59:06;98436.56;;;22.16;100.00
